EK521 Crash Lands at Dubai Airport (3rd of August, 2016)

An Emirates Boeing 777, EK521 from Thiruvananthapuram Airport (TRV) to Dubai Intl (DXB) crash landed.

Time Lat Lon Altitude Heading Speed Vertical Rate
2016-08-03 08:37:40 GMT 25.2532 55.3712 575 120 129 64
2016-08-03 08:37:01 GMT 25.2676 55.3451 725 121 177 -960
2016-08-03 08:36:46 GMT 25.274 55.3337 950 121 173 -1024
2016-08-03 08:36:41 GMT 25.2764 55.3294 1,025 121 171 -960
2016-08-03 08:36:30 GMT 25.2811 55.321 1,200 121 167 -896
2016-08-03 08:36:19 GMT 25.2853 55.3132 1,325 120 163 -832
2016-08-03 08:36:10 GMT 25.2886 55.3072 1,450 121 156 -1088
2016-08-03 08:36:00 GMT 25.2926 55.2999 1,600 121 154 -896
2016-08-03 08:35:48 GMT 25.2971 55.2919 1,725 121 155 -704
2016-08-03 08:35:37 GMT 25.301 55.2847 1,850 121 162 -832
2016-08-03 08:35:26 GMT 25.3054 55.2769 2,025 121 166 -1216
2016-08-03 08:35:26 GMT 25.3048 55.2779 2,000 121 166 -1216
2016-08-03 08:35:14 GMT 25.3102 55.2682 2,200 121 162 -768
2016-08-03 08:35:04 GMT 25.3143 55.2608 2,325 121 165 -896
2016-08-03 08:34:54 GMT 25.3184 55.2534 2,475 121 168 -960
2016-08-03 08:34:44 GMT 25.3226 55.2458 2,550 120 169 192
2016-08-03 08:34:32 GMT 25.3271 55.2374 2,550 120 173 64
2016-08-03 08:34:22 GMT 25.3314 55.2294 2,550 120 173 64
2016-08-03 08:34:11 GMT 25.3358 55.2211 2,525 120 170 64
2016-08-03 08:33:59 GMT 25.3407 55.2119 2,525 120 176 -64
2016-08-03 08:33:49 GMT 25.3451 55.204 2,575 121 189 -512
2016-08-03 08:33:38 GMT 25.35 55.1953 2,650 122 193 -512
2016-08-03 08:33:28 GMT 25.3546 55.1877 2,725 125 195 -576
2016-08-03 08:33:26 GMT 25.3564 55.1849 2,750 126 195 -512
2016-08-03 08:33:18 GMT 25.3607 55.179 2,800 130 193 -576
2016-08-03 08:33:16 GMT 25.3617 55.1777 2,825 131 194 -576
2016-08-03 08:33:06 GMT 25.3683 55.1701 2,900 135 192 -512
2016-08-03 08:32:55 GMT 25.3748 55.1629 3,000 136 191 -512
2016-08-03 08:32:44 GMT 25.3826 55.1566 3,075 152 192 -512
2016-08-03 08:32:35 GMT 25.3897 55.1526 3,150 153 192 -512
2016-08-03 08:32:33 GMT 25.3921 55.1514 3,175 153 192 -512
2016-08-03 08:32:24 GMT 25.3997 55.1472 3,250 154 192 -448
2016-08-03 08:32:12 GMT 25.4088 55.1431 3,325 163 193 -576
2016-08-03 08:32:02 GMT 25.4181 55.1422 3,425 191 199 -640
2016-08-03 08:31:51 GMT 25.4274 55.1463 3,525 218 207 -640
2016-08-03 08:31:40 GMT 25.4344 55.155 3,675 248 220 -768
2016-08-03 08:31:28 GMT 25.4377 55.1679 3,825 268 229 -896
2016-08-03 08:31:18 GMT 25.4362 55.1796 3,975 288 234 -1024
2016-08-03 08:31:09 GMT 25.4314 55.1904 4,100 301 239 -1088
2016-08-03 08:30:58 GMT 25.4264 55.1996 4,250 302 243 -1024
2016-08-03 08:30:56 GMT 25.4247 55.2026 4,275 302 243 -896
2016-08-03 08:30:47 GMT 25.4189 55.2133 4,425 302 245 -1088
2016-08-03 08:30:37 GMT 25.4134 55.2231 4,600 302 247 -1344
2016-08-03 08:30:35 GMT 25.4122 55.2253 4,625 302 247 -1280
2016-08-03 08:30:26 GMT 25.4063 55.2359 4,850 302 247 -1344
2016-08-03 08:30:14 GMT 25.4006 55.2464 5,050 302 247 -1280
2016-08-03 08:30:04 GMT 25.3942 55.258 5,275 302 246 -1152
2016-08-03 08:29:51 GMT 25.3857 55.2732 5,575 302 245 -1344
2016-08-03 08:29:42 GMT 25.3807 55.2823 5,750 301 245 -1344
2016-08-03 08:29:32 GMT 25.3743 55.2939 6,000 303 245 -1280
2016-08-03 08:29:20 GMT 25.3682 55.3046 6,200 302 244 -1216
2016-08-03 08:29:18 GMT 25.3663 55.3081 6,275 302 243 -1024
2016-08-03 08:29:09 GMT 25.3611 55.3174 6,450 303 237 -1600
2016-08-03 08:29:09 GMT 25.362 55.3158 6,425 302 238 -1152
2016-08-03 08:29:00 GMT 25.356 55.3264 6,625 302 236 -1344
2016-08-03 08:28:59 GMT 25.3549 55.3284 6,675 302 237 -1344
2016-08-03 08:28:48 GMT 25.349 55.3392 6,850 302 237 -1152
2016-08-03 08:28:38 GMT 25.343 55.3499 7,025 302 237 -1024
2016-08-03 08:28:27 GMT 25.3365 55.3615 7,200 303 238 -1088
2016-08-03 08:28:15 GMT 25.3299 55.3731 7,375 302 238 -1088
2016-08-03 08:28:05 GMT 25.3246 55.3827 7,525 301 239 -768
2016-08-03 08:28:03 GMT 25.323 55.3857 7,550 302 238 -640
2016-08-03 08:27:53 GMT 25.317 55.3964 7,625 302 241 -704
2016-08-03 08:27:52 GMT 25.3174 55.3958 7,625 302 240 -768
2016-08-03 08:27:42 GMT 25.3107 55.4076 7,725 302 249 -384
2016-08-03 08:27:32 GMT 25.3041 55.4193 7,800 302 257 -512
2016-08-03 08:27:22 GMT 25.2984 55.4296 7,875 302 256 -512
2016-08-03 08:27:22 GMT 25.2975 55.4312 7,875 302 256 -512
2016-08-03 08:27:11 GMT 25.2908 55.4434 7,975 302 252 -512
2016-08-03 08:27:00 GMT 25.2842 55.4552 8,075 302 255 -512
2016-08-03 08:26:49 GMT 25.2776 55.4672 8,150 301 255 -512
2016-08-03 08:26:36 GMT 25.2698 55.4815 8,275 302 257 -512
2016-08-03 08:26:27 GMT 25.2643 55.4915 8,325 302 256 -576
2016-08-03 08:26:16 GMT 25.2572 55.504 8,425 302 261 -576
2016-08-03 08:26:05 GMT 25.2499 55.5173 8,525 302 267 -576
2016-08-03 08:25:54 GMT 25.2434 55.5289 8,625 302 274 -640
2016-08-03 08:25:44 GMT 25.2362 55.5419 8,725 302 275 -512
2016-08-03 08:25:33 GMT 25.2299 55.5533 8,825 302 277 -576
2016-08-03 08:25:32 GMT 25.2286 55.5556 8,825 302 277 -576
2016-08-03 08:25:22 GMT 25.2215 55.5682 8,925 302 278 -576
2016-08-03 08:25:22 GMT 25.2226 55.5662 8,900 302 278 -512
2016-08-03 08:25:11 GMT 25.2143 55.5813 9,000 302 279 -512
2016-08-03 08:25:10 GMT 25.215 55.58 9,000 302 279 -576
2016-08-03 08:25:00 GMT 25.2073 55.594 9,100 302 280 -576
2016-08-03 08:24:59 GMT 25.2053 55.5976 9,125 302 279 -512
2016-08-03 08:24:50 GMT 25.2005 55.6061 9,175 302 282 -640
2016-08-03 08:24:49 GMT 25.1995 55.608 9,200 302 283 -640
2016-08-03 08:24:39 GMT 25.1922 55.621 9,300 302 290 -576
2016-08-03 08:24:38 GMT 25.193 55.6194 9,275 302 290 -640
2016-08-03 08:24:28 GMT 25.1845 55.6348 9,400 302 297 -576
2016-08-03 08:24:28 GMT 25.1856 55.6327 9,375 302 297 -576
2016-08-03 08:24:17 GMT 25.1776 55.6471 9,475 302 299 -576
2016-08-03 08:24:16 GMT 25.1762 55.6496 9,500 302 298 -576
2016-08-03 08:24:07 GMT 25.1696 55.6615 9,575 302 298 -512
2016-08-03 08:24:03 GMT 25.1667 55.6665 9,600 302 298 -512
2016-08-03 08:23:56 GMT 25.1614 55.676 9,675 302 298 -576
2016-08-03 08:23:55 GMT 25.1607 55.6773 9,675 302 298 -576
2016-08-03 08:23:44 GMT 25.153 55.6912 9,775 302 299 -576
2016-08-03 08:23:34 GMT 25.1451 55.7051 9,850 302 299 -512
2016-08-03 08:23:22 GMT 25.1365 55.7204 9,950 302 300 -512
2016-08-03 08:23:12 GMT 25.1293 55.7335 10,025 302 300 -576
2016-08-03 08:23:00 GMT 25.1208 55.7488 10,125 302 300 -512
2016-08-03 08:22:51 GMT 25.1147 55.7597 10,200 301 302 -512
2016-08-03 08:22:49 GMT 25.113 55.763 10,225 300 301 -512
2016-08-03 08:22:39 GMT 25.1061 55.7772 10,300 297 300 -512
2016-08-03 08:22:28 GMT 25.1 55.7923 10,375 292 300 -512
2016-08-03 08:22:19 GMT 25.0957 55.8047 10,450 291 300 -576
2016-08-03 08:22:17 GMT 25.0945 55.8084 10,475 290 301 -512
2016-08-03 08:22:08 GMT 25.0903 55.821 10,550 290 302 -576
2016-08-03 08:22:06 GMT 25.0889 55.8252 10,575 290 302 -576
2016-08-03 08:21:56 GMT 25.0846 55.8384 10,650 290 302 -512
2016-08-03 08:21:52 GMT 25.0823 55.8453 10,675 291 301 -512
2016-08-03 08:21:45 GMT 25.0793 55.8541 10,725 291 301 -576
2016-08-03 08:21:35 GMT 25.0749 55.8671 10,800 290 302 -448
2016-08-03 08:21:31 GMT 25.0727 55.8739 10,850 290 302 -448
2016-08-03 08:21:24 GMT 25.0688 55.8861 10,950 290 302 -768
2016-08-03 08:21:12 GMT 25.0636 55.9017 11,075 291 300 -704
2016-08-03 08:21:03 GMT 25.0589 55.9154 11,175 291 291 -704
2016-08-03 08:20:51 GMT 25.0537 55.9311 11,275 289 277 -832
2016-08-03 08:20:41 GMT 25.0489 55.9456 11,400 293 277 -1088
2016-08-03 08:20:30 GMT 25.0435 55.9591 11,550 296 280 -1216
2016-08-03 08:20:19 GMT 25.0365 55.9736 11,775 301 282 -1088
2016-08-03 08:20:09 GMT 25.0299 55.9857 12,000 301 282 -1984
2016-08-03 08:20:08 GMT 25.0305 55.9846 11,950 301 282 -1984
2016-08-03 08:19:58 GMT 25.0239 55.9969 12,275 301 283 -2368
2016-08-03 08:19:54 GMT 25.0204 56.0035 12,475 301 284 -2368
2016-08-03 08:19:45 GMT 25.0134 56.0162 12,850 301 285 -2560
2016-08-03 08:19:37 GMT 25.0091 56.0242 13,100 301 286 -2688
2016-08-03 08:19:32 GMT 25.0048 56.0322 13,375 301 287 -2624
2016-08-03 08:19:25 GMT 25.0004 56.0404 13,600 301 290 -2368
2016-08-03 08:19:15 GMT 24.9934 56.0532 13,975 301 293 -2304
2016-08-03 08:19:05 GMT 24.9856 56.0675 14,350 301 299 -1920
2016-08-03 08:18:54 GMT 24.9783 56.0809 14,600 301 308 -1408
2016-08-03 08:18:43 GMT 24.9704 56.0955 14,850 303 308 -1600
2016-08-03 08:18:32 GMT 24.9617 56.1098 15,125 307 308 -1600
2016-08-03 08:18:22 GMT 24.9537 56.1213 15,350 310 308 -1600
2016-08-03 08:18:21 GMT 24.9518 56.1238 15,400 311 307 -1536
2016-08-03 08:18:10 GMT 24.9415 56.1366 15,675 312 306 -1600
2016-08-03 08:17:59 GMT 24.9315 56.149 15,925 312 305 -1536
2016-08-03 08:17:49 GMT 24.9221 56.1607 16,175 312 303 -1536
2016-08-03 08:17:38 GMT 24.9104 56.1751 16,450 312 301 -1344
2016-08-03 08:17:26 GMT 24.9006 56.1871 16,675 312 301 -1280
2016-08-03 08:17:17 GMT 24.8922 56.1976 16,850 312 301 -1280
2016-08-03 08:17:06 GMT 24.882 56.2101 17,075 312 301 -1280
2016-08-03 08:16:56 GMT 24.8725 56.2218 17,275 312 301 -1216
2016-08-03 08:16:45 GMT 24.8627 56.234 17,475 312 299 -1152
2016-08-03 08:16:34 GMT 24.8524 56.2467 17,650 312 299 -1088
2016-08-03 08:16:24 GMT 24.8422 56.2593 17,850 312 301 -1088
2016-08-03 08:16:12 GMT 24.8322 56.2716 18,025 312 302 -1088
2016-08-03 08:16:02 GMT 24.823 56.2829 18,200 312 303 -1088
2016-08-03 08:16:02 GMT 24.8221 56.2841 18,225 312 303 -1088
2016-08-03 08:15:50 GMT 24.8119 56.2967 18,400 312 304 -1216
2016-08-03 08:15:39 GMT 24.8024 56.3084 18,575 312 305 -1088
2016-08-03 08:15:35 GMT 24.7978 56.3141 18,675 312 306 -1088
2016-08-03 08:15:29 GMT 24.7915 56.3218 18,775 312 306 -1088
2016-08-03 08:15:18 GMT 24.7814 56.3342 18,950 312 308 -1088
2016-08-03 08:15:07 GMT 24.7707 56.3475 19,150 312 318 -1152
2016-08-03 08:14:56 GMT 24.7604 56.3603 19,350 312 325 -1216
2016-08-03 08:14:46 GMT 24.7496 56.3736 19,550 312 335 -1280
2016-08-03 08:14:35 GMT 24.7382 56.3876 19,750 312 342 -1216
2016-08-03 08:14:25 GMT 24.7286 56.3994 19,925 312 345 -1216
2016-08-03 08:14:25 GMT 24.727 56.4014 19,975 312 345 -1280
2016-08-03 08:14:14 GMT 24.7157 56.4153 20,175 316 347 -1280
2016-08-03 08:14:03 GMT 24.7028 56.4283 20,400 322 346 -1344
2016-08-03 08:13:52 GMT 24.6888 56.4395 20,600 329 345 -1344
2016-08-03 08:13:40 GMT 24.6723 56.4495 20,850 334 346 -1344
2016-08-03 08:13:30 GMT 24.657 56.4566 21,050 340 346 -1344
2016-08-03 08:13:20 GMT 24.6415 56.463 21,275 340 349 -1280
2016-08-03 08:13:09 GMT 24.6252 56.4697 21,475 340 352 -1280
2016-08-03 08:12:59 GMT 24.6105 56.4756 21,675 340 353 -1344
2016-08-03 08:12:56 GMT 24.6043 56.4781 21,750 340 353 -1344
2016-08-03 08:12:46 GMT 24.5897 56.484 21,925 340 355 -1280
2016-08-03 08:12:36 GMT 24.5745 56.4903 22,125 338 357 -1216
2016-08-03 08:12:26 GMT 24.5595 56.4981 22,325 331 361 -1344
2016-08-03 08:12:15 GMT 24.5425 56.5106 22,575 322 365 -1344
2016-08-03 08:12:04 GMT 24.5307 56.5227 22,750 314 368 -1344
2016-08-03 08:11:53 GMT 24.5178 56.5377 22,975 314 370 -1216
2016-08-03 08:11:43 GMT 24.5067 56.5506 23,150 314 372 -1216
2016-08-03 08:11:43 GMT 24.505 56.5527 23,175 314 372 -1216
2016-08-03 08:11:32 GMT 24.491 56.569 23,400 314 372 -1152
2016-08-03 08:11:32 GMT 24.4934 56.5662 23,350 314 372 -1216
2016-08-03 08:11:22 GMT 24.4814 56.5802 23,550 313 374 -1152
2016-08-03 08:11:21 GMT 24.4791 56.5829 23,575 313 374 -1088
2016-08-03 08:11:09 GMT 24.4658 56.5986 23,775 314 372 -960
2016-08-03 08:10:59 GMT 24.456 56.61 23,875 313 369 -1216
2016-08-03 08:10:57 GMT 24.452 56.6148 23,925 312 371 -128
2016-08-03 08:10:48 GMT 24.4413 56.6281 23,975 311 372 0
2016-08-03 08:10:38 GMT 24.43 56.6426 23,975 310 372 -128
2016-08-03 08:10:28 GMT 24.4195 56.6567 24,025 308 372 -512
2016-08-03 08:10:27 GMT 24.4166 56.6609 24,050 308 370 -640
2016-08-03 08:10:16 GMT 24.4065 56.6753 24,175 308 371 -1664
2016-08-03 08:10:06 GMT 24.3974 56.6882 24,400 308 373 -1344
2016-08-03 08:10:03 GMT 24.3933 56.6941 24,475 308 373 -1280
2016-08-03 08:09:56 GMT 24.3861 56.7044 24,575 308 378 -832
2016-08-03 08:09:53 GMT 24.3824 56.7097 24,625 308 380 -768
2016-08-03 08:09:43 GMT 24.3699 56.7276 24,800 308 386 -1664
2016-08-03 08:09:33 GMT 24.3604 56.7411 25,000 308 399 -1472
2016-08-03 08:09:23 GMT 24.3491 56.7572 25,250 308 412 -1600
2016-08-03 08:09:13 GMT 24.3362 56.7755 25,525 308 428 -2112
2016-08-03 08:08:59 GMT 24.3217 56.7962 25,950 308 438 -2432
2016-08-03 08:08:57 GMT 24.317 56.8028 26,100 308 439 -2496
2016-08-03 08:08:50 GMT 24.3103 56.8125 26,325 308 448 -2560
2016-08-03 08:08:49 GMT 24.3083 56.8154 26,400 308 450 -2048
2016-08-03 08:08:40 GMT 24.2955 56.8335 26,700 308 455 -1728
2016-08-03 08:08:39 GMT 24.2974 56.8308 26,650 308 454 -1728
2016-08-03 08:08:29 GMT 24.2826 56.8519 26,975 308 457 -2240
2016-08-03 08:08:29 GMT 24.2818 56.8529 27,000 308 457 -2368
2016-08-03 08:08:17 GMT 24.2687 56.8717 27,450 308 455 -3456
2016-08-03 08:08:14 GMT 24.2631 56.8795 27,675 308 455 -3584
2016-08-03 08:08:08 GMT 24.2546 56.8917 28,050 308 451 -2432
2016-08-03 08:08:07 GMT 24.2557 56.8901 28,000 308 451 -3136
2016-08-03 08:07:57 GMT 24.2427 56.9086 28,350 308 452 -1984
2016-08-03 08:07:56 GMT 24.2403 56.912 28,400 308 452 -1984
2016-08-03 08:07:46 GMT 24.2269 56.9312 28,725 308 455 -1984
2016-08-03 08:07:34 GMT 24.2137 56.9498 29,050 308 457 -2048
2016-08-03 08:07:32 GMT 24.2089 56.9565 29,150 308 457 -2048
2016-08-03 08:07:23 GMT 24.1975 56.9728 29,425 308 459 -1984
2016-08-03 08:07:22 GMT 24.1975 56.9728 29,425 308 459 -1984
2016-08-03 08:07:14 GMT 24.1839 56.9921 29,750 308 463 -1984
2016-08-03 08:07:13 GMT 24.1845 56.9912 29,750 308 462 -2048
2016-08-03 08:07:00 GMT 24.1692 57.0129 30,100 308 465 -2048
2016-08-03 08:06:58 GMT 24.165 57.0189 30,200 308 464 -2048
2016-08-03 08:06:52 GMT 24.1557 57.032 30,425 308 468 -2048
2016-08-03 08:06:51 GMT 24.157 57.0301 30,375 308 467 -2048
2016-08-03 08:06:39 GMT 24.1391 57.0555 30,825 308 470 -2048
2016-08-03 08:06:31 GMT 24.1294 57.0692 31,050 308 474 -1984
2016-08-03 08:06:30 GMT 24.127 57.0727 31,100 308 473 -1984
2016-08-03 08:06:19 GMT 24.1136 57.0917 31,400 308 475 -1984
2016-08-03 08:06:14 GMT 24.1043 57.1048 31,600 308 475 -1984
2016-08-03 08:06:08 GMT 24.0977 57.1142 31,775 308 478 -2048
2016-08-03 08:06:07 GMT 24.0989 57.1125 31,725 308 478 -2048
2016-08-03 08:05:58 GMT 24.0857 57.1311 32,050 308 482 -2048
2016-08-03 08:05:56 GMT 24.0811 57.1377 32,150 308 482 -2048
2016-08-03 08:05:47 GMT 24.0686 57.1554 32,425 308 484 -1984
2016-08-03 08:05:44 GMT 24.067 57.1576 32,475 308 484 -1984
2016-08-03 08:05:34 GMT 24.0516 57.1794 32,800 308 488 -1984
2016-08-03 08:05:34 GMT 24.0533 57.177 32,775 308 487 -1984
2016-08-03 08:05:24 GMT 24.0367 57.2005 33,125 308 490 -1984
2016-08-03 08:05:22 GMT 24.0367 57.2005 33,125 308 491 -1984
2016-08-03 08:05:13 GMT 24.0235 57.2192 33,425 308 494 -1984
2016-08-03 08:05:09 GMT 24.0169 57.2285 33,575 308 494 -1984
2016-08-03 08:05:00 GMT 24.0062 57.2435 33,800 308 496 -2048
2016-08-03 08:04:51 GMT 23.9912 57.2647 34,125 308 501 -2112
2016-08-03 08:04:43 GMT 23.98 57.2805 34,400 308 503 -2112
2016-08-03 08:04:40 GMT 23.9759 57.2863 34,475 308 502 -2112
2016-08-03 08:04:31 GMT 23.9642 57.3028 34,750 308 504 -2112
2016-08-03 08:04:27 GMT 23.9564 57.3137 34,925 308 506 -2112
2016-08-03 08:04:20 GMT 23.9499 57.323 35,075 308 508 -2048
2016-08-03 08:04:19 GMT 23.9455 57.3291 35,175 308 509 -2048
2016-08-03 08:04:10 GMT 23.9317 57.3485 35,475 308 511 -1920
2016-08-03 08:04:04 GMT 23.9263 57.3561 35,600 308 511 -1984
2016-08-03 08:03:59 GMT 23.9167 57.3696 35,775 308 513 -1472
2016-08-03 08:03:58 GMT 23.9152 57.3716 35,800 308 514 -960
2016-08-03 08:03:49 GMT 23.9 57.3929 35,975 308 513 -384
2016-08-03 08:03:47 GMT 23.8993 57.394 35,975 308 513 -384
2016-08-03 08:03:37 GMT 23.8872 57.4109 36,000 308 513 0
2016-08-03 08:03:34 GMT 23.8802 57.4208 35,975 308 513 0
2016-08-03 08:03:25 GMT 23.8659 57.4409 35,975 308 513 0
2016-08-03 08:03:15 GMT 23.8524 57.4599 35,975 308 513 0
2016-08-03 08:03:13 GMT 23.8495 57.464 35,975 308 513 0
2016-08-03 08:03:04 GMT 23.8374 57.481 35,975 308 513 0
2016-08-03 08:02:56 GMT 23.824 57.4999 35,975 308 513 0
2016-08-03 08:02:54 GMT 23.824 57.4999 35,975 308 514 0
2016-08-03 08:02:51 GMT 23.8164 57.5105 36,000 308 514 0
2016-08-03 08:02:44 GMT 23.8062 57.5249 35,975 308 514 0
2016-08-03 08:02:32 GMT 23.7889 57.5493 36,000 308 514 0
2016-08-03 08:02:21 GMT 23.7727 57.5721 36,000 308 514 0
2016-08-03 08:02:10 GMT 23.7578 57.5933 36,000 308 515 0
2016-08-03 08:01:51 GMT 23.7302 57.6324 36,000 308 514 0
2016-08-03 08:01:47 GMT 23.7244 57.6407 36,000 308 514 0
2016-08-03 08:01:41 GMT 23.7162 57.6521 35,975 309 514 0
2016-08-03 08:01:38 GMT 23.7118 57.6582 36,000 309 513 0
2016-08-03 08:01:28 GMT 23.6819 57.6993 35,975 309 515 0
2016-08-03 08:01:06 GMT 23.6638 57.724 35,975 309 515 0
2016-08-03 08:00:54 GMT 23.6471 57.7468 35,975 309 515 -64
2016-08-03 08:00:43 GMT 23.6234 57.7793 35,975 309 514 -64
2016-08-03 08:00:25 GMT 23.5974 57.8164 35,975 306 514 0
2016-08-03 08:00:20 GMT 23.5962 57.8182 36,000 306 514 0
2016-08-03 07:59:58 GMT 23.568 57.8616 36,000 306 513 0
2016-08-03 07:59:47 GMT 23.5534 57.884 36,000 306 514 64
2016-08-03 07:59:13 GMT 23.5043 57.9593 35,975 306 513 0
2016-08-03 07:59:01 GMT 23.4877 57.9849 36,000 306 514 0
2016-08-03 07:58:58 GMT 23.4842 57.9901 36,000 306 514 0
2016-08-03 07:58:47 GMT 23.4692 58.0132 35,975 306 515 0
2016-08-03 07:58:36 GMT 23.4538 58.0363 35,975 306 516 0
2016-08-03 07:58:25 GMT 23.4382 58.06 36,000 306 517 0
2016-08-03 07:58:14 GMT 23.4229 58.0823 35,975 310 516 64
2016-08-03 07:58:00 GMT 23.3999 58.11 36,000 316 514 0
2016-08-03 07:57:52 GMT 23.3863 58.1238 36,000 319 514 0
2016-08-03 07:57:41 GMT 23.3659 58.1419 36,000 324 511 -64
2016-08-03 07:57:30 GMT 23.3449 58.1573 36,000 329 509 -64
2016-08-03 07:57:19 GMT 23.3219 58.1728 35,975 329 509 0
2016-08-03 07:57:08 GMT 23.3005 58.187 35,975 329 509 0
2016-08-03 07:56:57 GMT 23.268 58.2088 35,975 329 510 0
2016-08-03 07:56:41 GMT 23.2465 58.2232 36,000 329 509 0
2016-08-03 07:56:30 GMT 23.2244 58.238 35,975 329 509 0
2016-08-03 07:56:19 GMT 23.192 58.2595 36,000 329 509 0
2016-08-03 07:55:39 GMT 23.1211 58.3067 36,000 329 510 64
2016-08-03 07:55:28 GMT 23.099 58.3215 36,000 329 510 64
2016-08-03 07:55:17 GMT 23.0705 58.3406 36,000 329 510 0
2016-08-03 07:55:02 GMT 23.0325 58.3658 35,975 329 510 0
2016-08-03 07:54:43 GMT 23.0111 58.3799 35,975 329 511 0
2016-08-03 07:54:32 GMT 22.9891 58.3946 35,975 329 511 0
We lost coverage of the aircraft here for a total of 141 minutes
2016-08-03 05:33:42 GMT 10.3179 74.3349 34,400 306 521 704
2016-08-03 05:33:04 GMT 10.2657 74.4096 33,975 306 521 768
2016-08-03 05:31:09 GMT 10.1049 74.6389 32,600 306 520 1280
2016-08-03 05:31:02 GMT 10.0954 74.6524 32,450 306 520 1472
2016-08-03 05:30:00 GMT 10.0077 74.7772 31,250 306 530 1024
2016-08-03 05:29:52 GMT 9.99527 74.7949 31,125 306 530 1024
2016-08-03 05:29:18 GMT 9.94803 74.8621 30,550 306 532 1216
2016-08-03 05:29:12 GMT 9.93869 74.8753 30,425 306 533 1216
2016-08-03 05:29:01 GMT 9.92321 74.8973 30,225 306 534 1024
2016-08-03 05:28:40 GMT 9.89255 74.941 29,975 306 533 576
2016-08-03 05:28:24 GMT 9.87039 74.9724 29,825 306 530 640
2016-08-03 05:28:07 GMT 9.84631 75.0066 29,650 306 528 704
2016-08-03 05:27:51 GMT 9.82378 75.0386 29,450 306 526 768
2016-08-03 05:27:40 GMT 9.80795 75.0611 29,325 306 524 704
2016-08-03 05:27:29 GMT 9.79257 75.0829 29,225 306 523 704
2016-08-03 05:27:18 GMT 9.77695 75.1051 29,075 306 522 896
2016-08-03 05:27:02 GMT 9.75423 75.1373 28,900 306 519 576
2016-08-03 05:26:51 GMT 9.73888 75.1591 28,775 306 517 832
2016-08-03 05:26:25 GMT 9.7026 75.2106 28,425 306 514 832
2016-08-03 05:26:08 GMT 9.679 75.2441 28,200 306 512 1024
2016-08-03 05:25:51 GMT 9.6563 75.2763 27,975 306 510 704
2016-08-03 05:25:31 GMT 9.62823 75.3161 27,750 306 505 960
2016-08-03 05:25:15 GMT 9.60661 75.3467 27,500 306 504 896
2016-08-03 05:24:54 GMT 9.57816 75.387 27,250 306 499 768
2016-08-03 05:24:37 GMT 9.5548 75.4201 27,025 306 496 896
2016-08-03 05:23:51 GMT 9.49434 75.5056 26,400 306 488 1024
2016-08-03 05:23:35 GMT 9.47291 75.5359 26,125 306 486 1088
2016-08-03 05:22:45 GMT 9.40779 75.6278 25,350 306 477 1152
2016-08-03 05:22:37 GMT 9.3975 75.6424 25,175 306 476 1344
2016-08-03 05:22:21 GMT 9.37702 75.6714 24,850 306 474 1088
2016-08-03 05:22:05 GMT 9.35733 75.6992 24,650 306 470 768
2016-08-03 05:21:54 GMT 9.3428 75.7198 24,475 306 468 1152
2016-08-03 05:21:35 GMT 9.31952 75.7526 24,125 306 464 1152
2016-08-03 05:21:19 GMT 9.2991 75.7813 23,825 306 461 1344
2016-08-03 05:21:02 GMT 9.27795 75.8112 23,450 306 460 1408
2016-08-03 05:20:36 GMT 9.24522 75.8575 22,850 306 456 1408
2016-08-03 05:20:20 GMT 9.22664 75.8837 22,500 306 454 1536
2016-08-03 05:20:09 GMT 9.2132 75.9027 22,225 306 453 1536
2016-08-03 05:19:48 GMT 9.18732 75.9392 21,725 306 450 1536
2016-08-03 05:19:32 GMT 9.16804 75.9663 21,350 306 447 1536
2016-08-03 05:19:16 GMT 9.14827 75.9942 21,000 306 443 1152
2016-08-03 05:19:05 GMT 9.13513 76.0127 20,800 306 440 1280
2016-08-03 05:18:48 GMT 9.1154 76.0405 20,475 306 435 1216
2016-08-03 05:18:37 GMT 9.10236 76.0588 20,250 306 431 1280
2016-08-03 05:18:24 GMT 9.08757 76.0796 20,000 306 427 1152
2016-08-03 05:18:08 GMT 9.06903 76.1056 19,675 306 422 1344
2016-08-03 05:17:51 GMT 9.04939 76.1332 19,325 306 416 1280
2016-08-03 05:17:40 GMT 9.03694 76.1507 19,125 306 412 1280
2016-08-03 05:17:29 GMT 9.0244 76.1684 18,875 306 409 1664
2016-08-03 05:17:12 GMT 9.00595 76.1944 18,425 306 406 1664
2016-08-03 05:16:26 GMT 8.95581 76.2651 17,175 306 398 1280
2016-08-03 05:16:10 GMT 8.93868 76.2892 16,800 306 393 1664
2016-08-03 05:15:49 GMT 8.91673 76.3202 16,250 306 389 1792
2016-08-03 05:15:32 GMT 8.89842 76.3459 15,750 306 385 1920
2016-08-03 05:15:19 GMT 8.8857 76.3638 15,375 306 384 1920
2016-08-03 05:15:04 GMT 8.86978 76.386 14,925 306 381 1792
2016-08-03 05:14:48 GMT 8.85326 76.4091 14,475 306 379 1856
2016-08-03 05:14:32 GMT 8.83692 76.432 14,050 306 374 1536
2016-08-03 05:14:11 GMT 8.81548 76.4621 13,550 306 366 1536
2016-08-03 05:13:40 GMT 8.7849 76.5051 12,525 306 362 2048
2016-08-03 05:13:28 GMT 8.77322 76.5215 12,125 306 359 2048
2016-08-03 05:13:16 GMT 8.76219 76.537 11,800 306 355 1600
2016-08-03 05:12:50 GMT 8.7373 76.5719 11,350 306 334 832
2016-08-03 05:12:34 GMT 8.7231 76.5918 11,125 306 321 960
2016-08-03 05:12:17 GMT 8.70857 76.6121 10,850 306 305 1024
2016-08-03 05:12:06 GMT 8.6995 76.6248 10,700 306 296 960
2016-08-03 05:11:53 GMT 8.68991 76.6383 10,525 306 285 768
2016-08-03 05:11:32 GMT 8.67412 76.6602 10,200 307 264 1984
2016-08-03 05:11:20 GMT 8.66524 76.6725 9,800 306 262 2176
2016-08-03 05:10:59 GMT 8.65038 76.6932 9,025 306 258 2304
2016-08-03 05:10:43 GMT 8.63898 76.709 8,425 307 256 2176
2016-08-03 05:10:21 GMT 8.62436 76.7297 7,675 306 252 2304
2016-08-03 05:10:05 GMT 8.61347 76.7449 7,125 306 248 1984
2016-08-03 05:09:44 GMT 8.59927 76.7649 6,325 306 244 2816
2016-08-03 05:09:28 GMT 8.58865 76.7798 5,700 307 243 1920
2016-08-03 05:09:11 GMT 8.57786 76.7946 5,175 306 235 2752
2016-08-03 05:09:00 GMT 8.57027 76.8053 4,700 306 235 1984
2016-08-03 05:08:48 GMT 8.56324 76.8153 4,450 306 225 1152
2016-08-03 05:08:37 GMT 8.55649 76.8248 4,250 306 213 1024
2016-08-03 05:07:55 GMT 8.53419 76.8561 3,350 307 181 1600
2016-08-03 05:07:34 GMT 8.52374 76.8707 2,625 306 181 2624
2016-08-03 05:07:17 GMT 8.51555 76.8821 2,050 306 184 1664
2016-08-03 05:07:04 GMT 8.50914 76.8908 1,750 308 177 2048
2016-08-03 05:06:49 GMT 8.50095 76.9008 1,050 313 182 3328
2016-08-03 05:06:37 GMT 8.49422 76.908 500 315 184 2432
2016-08-03 05:06:22 GMT 8.48467 76.9175 0 315 175 0
2016-08-03 05:05:55 GMT 8.47396 76.9279 0 315 65 0
2016-08-03 05:05:39 GMT 8.47216 76.9297 0 312 9 0
2016-08-03 05:05:02 GMT 8.47157 76.9304 0 67 7 0
2016-08-03 05:04:40 GMT 8.47138 76.9302 0 132 0 0
2016-08-03 05:04:19 GMT 8.47163 76.93 0 143 9 0
2016-08-03 05:04:01 GMT 8.47232 76.9294 0 140 15 0
2016-08-03 05:03:45 GMT 8.47316 76.9286 0 137 19 0
2016-08-03 05:03:28 GMT 8.47444 76.9274 0 135 26 0
2016-08-03 05:03:17 GMT 8.47539 76.9265 0 135 26 0
2016-08-03 05:03:06 GMT 8.47627 76.9256 0 135 25 0
2016-08-03 05:02:55 GMT 8.47718 76.9247 0 135 25 0
2016-08-03 05:02:13 GMT 8.48007 76.9219 0 135 17 0
2016-08-03 05:01:57 GMT 8.48082 76.9212 0 135 11 0
2016-08-03 05:01:15 GMT 8.48233 76.9211 0 225 10 0
2016-08-03 05:00:19 GMT 8.48369 76.9225 0 188 7 0
2016-08-03 05:00:08 GMT 8.48402 76.9226 0 140 7 0
2016-08-03 04:59:47 GMT 8.48465 76.922 0 137 10 0
2016-08-03 04:59:31 GMT 8.48505 76.9216 0 135 8 0
2016-08-03 04:59:15 GMT 8.48544 76.9213 0 112 7 0
2016-08-03 04:58:59 GMT 8.48559 76.9208 0 53 8 0
2016-08-03 04:58:43 GMT 8.48531 76.9205 0 45 6 0
2016-08-03 04:58:28 GMT 8.48521 76.9204 0 45 0 0
2016-08-03 04:58:08 GMT 8.4852 76.9204 0 45 0 0
2016-08-03 04:57:54 GMT 8.48521 76.9204 0 45 0 0
2016-08-03 04:57:19 GMT 8.48521 76.9204 0 45 0 0
2016-08-03 04:56:25 GMT 8.48522 76.9204 0 45 0 0
2016-08-03 04:55:50 GMT 8.48521 76.9204 0 45 0 0
2016-08-03 04:55:35 GMT 8.48521 76.9204 0 45 0 0
2016-08-03 04:54:25 GMT 8.48522 76.9204 0 45 0 0
2016-08-03 04:53:44 GMT 8.48532 76.9206 0 53 3 0
2016-08-03 04:53:07 GMT 8.4856 76.9208 0 39 3 0
2016-08-03 04:52:33 GMT 8.48587 76.9208 0 0 3 0
2016-08-03 04:51:54 GMT 8.48617 76.9206 0 345 3 0
2016-08-03 04:51:21 GMT 8.48642 76.9207 0 14 3 0
2016-08-03 04:50:40 GMT 8.48666 76.9209 0 36 2 0
2016-08-03 04:50:03 GMT 8.48683 76.9211 0 45 1 0
2016-08-03 04:49:23 GMT 8.48688 76.9212 0 45 0 0
2016-08-03 04:49:03 GMT 8.48688 76.9212 0 45 0 0
2016-08-03 04:48:48 GMT 8.48688 76.9212 0 45 0 0
2016-08-03 04:48:18 GMT 8.48689 76.9212 0 45 0 0
2016-08-03 04:47:38 GMT 8.48689 76.9212 0 45 0 0
2016-08-03 04:47:28 GMT 8.48689 76.9212 0 45 0 0
2016-08-03 04:47:08 GMT 8.48689 76.9212 0 45 0 0
2016-08-03 04:46:38 GMT 8.48689 76.9212 0 45 0 0
2016-08-03 04:45:58 GMT 8.48689 76.9212 0 45 0 0
2016-08-03 04:45:38 GMT 8.48689 76.9212 0 45 0 0
2016-08-03 04:45:28 GMT 8.48689 76.9212 0 45 0 0
2016-08-03 04:45:18 GMT 8.48689 76.9212 0 45 0 0
2016-08-03 04:44:49 GMT 8.48689 76.9212 0 45 0 0
2016-08-03 04:44:23 GMT 8.48689 76.9212 0 45 0 0
2016-08-03 04:44:13 GMT 8.48689 76.9212 0 45 0 0
2016-08-03 04:44:04 GMT 8.48689 76.9212 0 45 0 0

Making use of Plane Finder data

You are free to use the raw flight data, aircraft information and images provided in this report for your own purposes provided the data is correctly attributed to Plane Finder. We ask that you please credit Plane Finder and link to planefinder.net in close proximity to the content.

Optionally one of the following logos (no smaller then 150x24px) can be used and must link to planefinder.net

Embedding the Plane Finder map

You are welcome to embed the Plane Finder playback map on your website to offer visitors a more interactive experience. We suggest using the following HTML code:

<iframe src="//planefinder.net/data/report/EK521-CRASH-LAND/map" width="800" height="600" seamless="seamless"></iframe>

Where our data comes from

Plane Finder has a global network of data feeds and antenna radars that receive data broadcast directly from aircraft. The primary technologies used are ADS-B and MLAT. We also show feeds from the FAA and a FLARM glider feed.

Click here to find out more about the Plane Finder network.

How we collect our data